sensor_id;sensor_type;location;lat;lon;timestamp;pressure;altitude;pressure_sealevel;temperature
66180;BMP280;52986;44.028;20.466;2023-10-19T00:01:55;97820.06;;;8.56
66180;BMP280;52986;44.028;20.466;2023-10-19T00:04:20;97813.28;;;8.55
66180;BMP280;52986;44.028;20.466;2023-10-19T00:06:47;97816.91;;;8.61
66180;BMP280;52986;44.028;20.466;2023-10-19T00:09:14;97800.66;;;8.68
66180;BMP280;52986;44.028;20.466;2023-10-19T00:11:40;97809.66;;;8.74
66180;BMP280;52986;44.028;20.466;2023-10-19T00:14:06;97807.94;;;8.80
66180;BMP280;52986;44.028;20.466;2023-10-19T00:16:43;97816.69;;;8.93
66180;BMP280;52986;44.028;20.466;2023-10-19T00:19:10;97814.03;;;8.93
66180;BMP280;52986;44.028;20.466;2023-10-19T00:21:36;97816.47;;;9.00
66180;BMP280;52986;44.028;20.466;2023-10-19T00:24:17;97814.31;;;8.95
66180;BMP280;52986;44.028;20.466;2023-10-19T00:26:42;97819.22;;;8.97
66180;BMP280;52986;44.028;20.466;2023-10-19T00:29:09;97815.41;;;8.98
66180;BMP280;52986;44.028;20.466;2023-10-19T00:31:56;97811.22;;;8.97
66180;BMP280;52986;44.028;20.466;2023-10-19T00:34:23;97811.03;;;9.04
66180;BMP280;52986;44.028;20.466;2023-10-19T00:36:49;97797.09;;;9.09
66180;BMP280;52986;44.028;20.466;2023-10-19T00:39:16;97802.03;;;9.10
66180;BMP280;52986;44.028;20.466;2023-10-19T00:41:46;97795.94;;;8.97
66180;BMP280;52986;44.028;20.466;2023-10-19T00:44:13;97798.19;;;8.99
66180;BMP280;52986;44.028;20.466;2023-10-19T00:46:42;97790.78;;;9.16
66180;BMP280;52986;44.028;20.466;2023-10-19T00:49:10;97795.81;;;9.14
66180;BMP280;52986;44.028;20.466;2023-10-19T00:51:50;97786.81;;;9.20
66180;BMP280;52986;44.028;20.466;2023-10-19T00:54:38;97789.28;;;9.15
66180;BMP280;52986;44.028;20.466;2023-10-19T00:57:18;97776.31;;;9.26
66180;BMP280;52986;44.028;20.466;2023-10-19T00:59:48;97773.66;;;9.26
66180;BMP280;52986;44.028;20.466;2023-10-19T01:02:16;97765.72;;;9.35
66180;BMP280;52986;44.028;20.466;2023-10-19T01:04:52;97758.97;;;9.43
66180;BMP280;52986;44.028;20.466;2023-10-19T01:07:27;97761.63;;;9.43
66180;BMP280;52986;44.028;20.466;2023-10-19T01:09:59;97759.22;;;9.36
66180;BMP280;52986;44.028;20.466;2023-10-19T01:12:25;97766.88;;;9.47
66180;BMP280;52986;44.028;20.466;2023-10-19T01:15:21;97753.91;;;9.45
66180;BMP280;52986;44.028;20.466;2023-10-19T01:17:56;97753.69;;;9.52
66180;BMP280;52986;44.028;20.466;2023-10-19T01:20:32;97742.13;;;9.55
66180;BMP280;52986;44.028;20.466;2023-10-19T01:23:05;97749.84;;;9.53
66180;BMP280;52986;44.028;20.466;2023-10-19T01:25:50;97749.75;;;9.44
66180;BMP280;52986;44.028;20.466;2023-10-19T01:28:16;97750.75;;;9.37
66180;BMP280;52986;44.028;20.466;2023-10-19T01:30:45;97754.91;;;9.38
66180;BMP280;52986;44.028;20.466;2023-10-19T01:33:11;97759.44;;;9.41
66180;BMP280;52986;44.028;20.466;2023-10-19T01:35:41;97754.84;;;9.51
66180;BMP280;52986;44.028;20.466;2023-10-19T01:38:25;97758.06;;;9.59
66180;BMP280;52986;44.028;20.466;2023-10-19T01:40:51;97748.13;;;9.59
66180;BMP280;52986;44.028;20.466;2023-10-19T01:43:17;97738.28;;;9.56
66180;BMP280;52986;44.028;20.466;2023-10-19T01:45:57;97731.50;;;9.64
66180;BMP280;52986;44.028;20.466;2023-10-19T01:48:23;97729.47;;;9.68
66180;BMP280;52986;44.028;20.466;2023-10-19T01:50:59;97727.13;;;9.80
66180;BMP280;52986;44.028;20.466;2023-10-19T01:53:25;97728.44;;;9.75
66180;BMP280;52986;44.028;20.466;2023-10-19T01:55:50;97733.00;;;9.65
66180;BMP280;52986;44.028;20.466;2023-10-19T01:58:23;97727.66;;;9.65
66180;BMP280;52986;44.028;20.466;2023-10-19T02:00:50;97729.03;;;9.70
66180;BMP280;52986;44.028;20.466;2023-10-19T02:03:19;97732.00;;;9.72
66180;BMP280;52986;44.028;20.466;2023-10-19T02:05:46;97720.75;;;9.77
66180;BMP280;52986;44.028;20.466;2023-10-19T02:08:14;97725.84;;;9.84
66180;BMP280;52986;44.028;20.466;2023-10-19T02:10:46;97719.59;;;9.87
66180;BMP280;52986;44.028;20.466;2023-10-19T02:13:12;97710.13;;;9.95
66180;BMP280;52986;44.028;20.466;2023-10-19T02:15:42;97702.16;;;10.04
66180;BMP280;52986;44.028;20.466;2023-10-19T02:18:08;97706.78;;;10.04
66180;BMP280;52986;44.028;20.466;2023-10-19T02:20:34;97704.56;;;10.12
66180;BMP280;52986;44.028;20.466;2023-10-19T02:22:59;97705.75;;;10.11
66180;BMP280;52986;44.028;20.466;2023-10-19T02:25:29;97711.56;;;10.09
66180;BMP280;52986;44.028;20.466;2023-10-19T02:27:59;97700.84;;;10.09
66180;BMP280;52986;44.028;20.466;2023-10-19T02:30:24;97696.09;;;10.13
66180;BMP280;52986;44.028;20.466;2023-10-19T02:32:50;97700.56;;;10.16
66180;BMP280;52986;44.028;20.466;2023-10-19T02:35:16;97691.19;;;10.12
66180;BMP280;52986;44.028;20.466;2023-10-19T02:37:41;97694.31;;;10.10
66180;BMP280;52986;44.028;20.466;2023-10-19T02:40:07;97694.91;;;10.14
66180;BMP280;52986;44.028;20.466;2023-10-19T02:42:55;97687.63;;;10.15
66180;BMP280;52986;44.028;20.466;2023-10-19T02:45:21;97690.19;;;10.18
66180;BMP280;52986;44.028;20.466;2023-10-19T02:47:46;97685.59;;;10.19
66180;BMP280;52986;44.028;20.466;2023-10-19T02:50:12;97683.81;;;10.25
66180;BMP280;52986;44.028;20.466;2023-10-19T02:52:45;97678.31;;;10.28
66180;BMP280;52986;44.028;20.466;2023-10-19T02:55:10;97686.63;;;10.21
66180;BMP280;52986;44.028;20.466;2023-10-19T02:57:36;97677.72;;;10.24
66180;BMP280;52986;44.028;20.466;2023-10-19T03:00:05;97679.06;;;10.29
66180;BMP280;52986;44.028;20.466;2023-10-19T03:02:36;97677.72;;;10.24
66180;BMP280;52986;44.028;20.466;2023-10-19T03:05:02;97673.25;;;10.21
66180;BMP280;52986;44.028;20.466;2023-10-19T03:07:35;97682.16;;;10.18
66180;BMP280;52986;44.028;20.466;2023-10-19T03:10:00;97675.47;;;10.23
66180;BMP280;52986;44.028;20.466;2023-10-19T03:12:27;97674.72;;;10.22
66180;BMP280;52986;44.028;20.466;2023-10-19T03:14:52;97677.44;;;10.31
66180;BMP280;52986;44.028;20.466;2023-10-19T03:17:18;97671.47;;;10.27
66180;BMP280;52986;44.028;20.466;2023-10-19T03:19:43;97674.19;;;10.37
66180;BMP280;52986;44.028;20.466;2023-10-19T03:22:10;97664.81;;;10.41
66180;BMP280;52986;44.028;20.466;2023-10-19T03:24:36;97663.75;;;10.39
66180;BMP280;52986;44.028;20.466;2023-10-19T03:27:13;97658.91;;;10.46
66180;BMP280;52986;44.028;20.466;2023-10-19T03:29:48;97665.88;;;10.44
66180;BMP280;52986;44.028;20.466;2023-10-19T03:32:20;97664.53;;;10.48
66180;BMP280;52986;44.028;20.466;2023-10-19T03:34:55;97657.84;;;10.53
66180;BMP280;52986;44.028;20.466;2023-10-19T03:37:24;97659.94;;;10.49
66180;BMP280;52986;44.028;20.466;2023-10-19T03:39:50;97653.97;;;10.45
66180;BMP280;52986;44.028;20.466;2023-10-19T03:42:16;97653.34;;;10.41
66180;BMP280;52986;44.028;20.466;2023-10-19T03:44:42;97643.13;;;10.48
66180;BMP280;52986;44.028;20.466;2023-10-19T03:47:13;97642.34;;;10.48
66180;BMP280;52986;44.028;20.466;2023-10-19T03:49:43;97640.00;;;10.50
66180;BMP280;52986;44.028;20.466;2023-10-19T03:52:09;97633.00;;;10.52
66180;BMP280;52986;44.028;20.466;2023-10-19T03:54:34;97630.03;;;10.50
66180;BMP280;52986;44.028;20.466;2023-10-19T03:57:04;97642.69;;;10.50
66180;BMP280;52986;44.028;20.466;2023-10-19T03:59:32;97653.25;;;10.44
66180;BMP280;52986;44.028;20.466;2023-10-19T04:02:03;97651.13;;;10.39
66180;BMP280;52986;44.028;20.466;2023-10-19T04:04:34;97655.13;;;10.34
66180;BMP280;52986;44.028;20.466;2023-10-19T04:06:59;97652.31;;;10.38
66180;BMP280;52986;44.028;20.466;2023-10-19T04:09:25;97659.34;;;10.45
66180;BMP280;52986;44.028;20.466;2023-10-19T04:11:56;97668.28;;;10.51
66180;BMP280;52986;44.028;20.466;2023-10-19T04:14:22;97671.53;;;10.55
66180;BMP280;52986;44.028;20.466;2023-10-19T04:16:48;97658.63;;;10.62
66180;BMP280;52986;44.028;20.466;2023-10-19T04:19:14;97645.38;;;10.68
66180;BMP280;52986;44.028;20.466;2023-10-19T04:21:41;97648.19;;;10.64
66180;BMP280;52986;44.028;20.466;2023-10-19T04:24:12;97641.81;;;10.62
66180;BMP280;52986;44.028;20.466;2023-10-19T04:26:37;97636.59;;;10.77
66180;BMP280;52986;44.028;20.466;2023-10-19T04:29:06;97633.63;;;10.75
66180;BMP280;52986;44.028;20.466;2023-10-19T04:31:42;97636.31;;;10.75
66180;BMP280;52986;44.028;20.466;2023-10-19T04:34:20;97639.84;;;10.72
66180;BMP280;52986;44.028;20.466;2023-10-19T04:36:50;97640.59;;;10.72
66180;BMP280;52986;44.028;20.466;2023-10-19T04:39:16;97635.41;;;10.69
66180;BMP280;52986;44.028;20.466;2023-10-19T04:41:45;97638.25;;;10.74
66180;BMP280;52986;44.028;20.466;2023-10-19T04:44:11;97636.91;;;10.70
66180;BMP280;52986;44.028;20.466;2023-10-19T04:46:37;97632.56;;;10.63
66180;BMP280;52986;44.028;20.466;2023-10-19T04:49:03;97633.59;;;10.56
66180;BMP280;52986;44.028;20.466;2023-10-19T04:51:29;97639.13;;;10.53
66180;BMP280;52986;44.028;20.466;2023-10-19T04:53:55;97640.31;;;10.52
66180;BMP280;52986;44.028;20.466;2023-10-19T04:56:21;97634.50;;;10.53
66180;BMP280;52986;44.028;20.466;2023-10-19T04:58:46;97637.00;;;10.48
66180;BMP280;52986;44.028;20.466;2023-10-19T05:01:12;97633.44;;;10.42
66180;BMP280;52986;44.028;20.466;2023-10-19T05:03:38;97636.72;;;10.46
66180;BMP280;52986;44.028;20.466;2023-10-19T05:06:03;97639.41;;;10.55
66180;BMP280;52986;44.028;20.466;2023-10-19T05:08:29;97634.06;;;10.55
66180;BMP280;52986;44.028;20.466;2023-10-19T05:10:55;97639.59;;;10.60
66180;BMP280;52986;44.028;20.466;2023-10-19T05:13:25;97644.03;;;10.63
66180;BMP280;52986;44.028;20.466;2023-10-19T05:15:51;97645.38;;;10.68
66180;BMP280;52986;44.028;20.466;2023-10-19T05:18:18;97644.50;;;10.80
66180;BMP280;52986;44.028;20.466;2023-10-19T05:20:45;97655.81;;;10.84
66180;BMP280;52986;44.028;20.466;2023-10-19T05:23:11;97648.97;;;10.83
66180;BMP280;52986;44.028;20.466;2023-10-19T05:25:38;97647.63;;;10.88
66180;BMP280;52986;44.028;20.466;2023-10-19T05:28:07;97654.66;;;10.85
66180;BMP280;52986;44.028;20.466;2023-10-19T05:30:35;97659.09;;;10.98
66180;BMP280;52986;44.028;20.466;2023-10-19T05:33:00;97661.19;;;11.03
66180;BMP280;52986;44.028;20.466;2023-10-19T05:35:31;97666.09;;;11.04
66180;BMP280;52986;44.028;20.466;2023-10-19T05:38:00;97655.06;;;11.02
66180;BMP280;52986;44.028;20.466;2023-10-19T05:40:26;97655.69;;;10.97
66180;BMP280;52986;44.028;20.466;2023-10-19T05:42:56;97651.06;;;10.98
66180;BMP280;52986;44.028;20.466;2023-10-19T05:45:22;97654.19;;;11.05
66180;BMP280;52986;44.028;20.466;2023-10-19T05:47:47;97660.91;;;11.10
66180;BMP280;52986;44.028;20.466;2023-10-19T05:50:12;97667.69;;;11.20
66180;BMP280;52986;44.028;20.466;2023-10-19T05:52:41;97669.81;;;11.25
66180;BMP280;52986;44.028;20.466;2023-10-19T05:55:08;97673.06;;;11.20
66180;BMP280;52986;44.028;20.466;2023-10-19T05:57:35;97669.50;;;11.23
66180;BMP280;52986;44.028;20.466;2023-10-19T06:00:01;97681.41;;;11.31
66180;BMP280;52986;44.028;20.466;2023-10-19T06:02:30;97679.31;;;11.35
66180;BMP280;52986;44.028;20.466;2023-10-19T06:04:55;97673.63;;;11.42
66180;BMP280;52986;44.028;20.466;2023-10-19T06:07:22;97672.31;;;11.38
66180;BMP280;52986;44.028;20.466;2023-10-19T06:09:50;97679.63;;;11.37
66180;BMP280;52986;44.028;20.466;2023-10-19T06:12:15;97677.69;;;11.38
66180;BMP280;52986;44.028;20.466;2023-10-19T06:14:40;97683.16;;;11.43
66180;BMP280;52986;44.028;20.466;2023-10-19T06:17:06;97680.50;;;11.52
66180;BMP280;52986;44.028;20.466;2023-10-19T06:19:31;97684.19;;;11.64
66180;BMP280;52986;44.028;20.466;2023-10-19T06:21:57;97683.88;;;11.71
66180;BMP280;52986;44.028;20.466;2023-10-19T06:24:22;97689.94;;;11.90
66180;BMP280;52986;44.028;20.466;2023-10-19T06:26:48;97696.69;;;12.09
66180;BMP280;52986;44.028;20.466;2023-10-19T06:29:13;97690.41;;;12.22
66180;BMP280;52986;44.028;20.466;2023-10-19T06:31:38;97691.53;;;12.30
66180;BMP280;52986;44.028;20.466;2023-10-19T06:34:04;97686.75;;;12.34
66180;BMP280;52986;44.028;20.466;2023-10-19T06:36:29;97687.16;;;12.41
66180;BMP280;52986;44.028;20.466;2023-10-19T06:38:55;97686.28;;;12.59
66180;BMP280;52986;44.028;20.466;2023-10-19T06:41:20;97683.84;;;12.70
66180;BMP280;52986;44.028;20.466;2023-10-19T06:43:46;97675.34;;;12.87
66180;BMP280;52986;44.028;20.466;2023-10-19T06:46:11;97669.56;;;13.03
66180;BMP280;52986;44.028;20.466;2023-10-19T06:48:37;97672.09;;;13.21
66180;BMP280;52986;44.028;20.466;2023-10-19T06:51:03;97657.63;;;13.33
66180;BMP280;52986;44.028;20.466;2023-10-19T06:53:28;97655.94;;;13.51
66180;BMP280;52986;44.028;20.466;2023-10-19T06:55:53;97656.84;;;13.62
66180;BMP280;52986;44.028;20.466;2023-10-19T06:58:20;97656.09;;;13.76
66180;BMP280;52986;44.028;20.466;2023-10-19T07:00:46;97649.25;;;13.96
66180;BMP280;52986;44.028;20.466;2023-10-19T07:03:21;97648.28;;;14.13
66180;BMP280;52986;44.028;20.466;2023-10-19T07:05:47;97649.09;;;14.20
66180;BMP280;52986;44.028;20.466;2023-10-19T07:08:15;97653.84;;;14.10
66180;BMP280;52986;44.028;20.466;2023-10-19T07:10:40;97667.88;;;15.53
66180;BMP280;52986;44.028;20.466;2023-10-19T07:13:06;97666.19;;;19.93
66180;BMP280;52986;44.028;20.466;2023-10-19T07:15:31;97682.78;;;23.53
66180;BMP280;52986;44.028;20.466;2023-10-19T07:17:57;97667.53;;;26.18
66180;BMP280;52986;44.028;20.466;2023-10-19T07:20:23;97671.47;;;28.31
66180;BMP280;52986;44.028;20.466;2023-10-19T07:23:01;97670.97;;;28.62
66180;BMP280;52986;44.028;20.466;2023-10-19T07:25:50;97664.47;;;28.67
66180;BMP280;52986;44.028;20.466;2023-10-19T07:28:25;97663.91;;;29.07
66180;BMP280;52986;44.028;20.466;2023-10-19T07:30:55;97660.19;;;28.46
66180;BMP280;52986;44.028;20.466;2023-10-19T07:33:21;97663.19;;;29.95
66180;BMP280;52986;44.028;20.466;2023-10-19T07:35:48;97660.41;;;30.78
66180;BMP280;52986;44.028;20.466;2023-10-19T07:38:18;97664.28;;;31.73
66180;BMP280;52986;44.028;20.466;2023-10-19T07:40:47;97669.25;;;32.10
66180;BMP280;52986;44.028;20.466;2023-10-19T07:43:12;97664.34;;;31.40
66180;BMP280;52986;44.028;20.466;2023-10-19T07:45:38;97662.34;;;29.82
66180;BMP280;52986;44.028;20.466;2023-10-19T07:48:05;97668.78;;;29.75
66180;BMP280;52986;44.028;20.466;2023-10-19T07:50:36;97668.91;;;29.68
66180;BMP280;52986;44.028;20.466;2023-10-19T07:53:03;97664.16;;;28.63
66180;BMP280;52986;44.028;20.466;2023-10-19T07:55:29;97656.69;;;27.73
66180;BMP280;52986;44.028;20.466;2023-10-19T07:57:57;97651.38;;;25.65
66180;BMP280;52986;44.028;20.466;2023-10-19T08:00:25;97651.56;;;26.49
66180;BMP280;52986;44.028;20.466;2023-10-19T08:02:52;97649.06;;;28.83
66180;BMP280;52986;44.028;20.466;2023-10-19T08:05:19;97641.44;;;30.84
66180;BMP280;52986;44.028;20.466;2023-10-19T08:07:45;97633.44;;;29.74
66180;BMP280;52986;44.028;20.466;2023-10-19T08:10:18;97638.88;;;28.01
66180;BMP280;52986;44.028;20.466;2023-10-19T08:12:45;97633.00;;;29.68
66180;BMP280;52986;44.028;20.466;2023-10-19T08:15:13;97629.44;;;30.69
66180;BMP280;52986;44.028;20.466;2023-10-19T08:17:41;97625.28;;;29.16
66180;BMP280;52986;44.028;20.466;2023-10-19T08:20:08;97625.63;;;27.90
66180;BMP280;52986;44.028;20.466;2023-10-19T08:22:38;97619.50;;;27.55
66180;BMP280;52986;44.028;20.466;2023-10-19T08:25:04;97613.97;;;26.76
66180;BMP280;52986;44.028;20.466;2023-10-19T08:27:30;97616.53;;;27.97
66180;BMP280;52986;44.028;20.466;2023-10-19T08:29:58;97609.03;;;28.72
66180;BMP280;52986;44.028;20.466;2023-10-19T08:32:23;97612.03;;;28.47
66180;BMP280;52986;44.028;20.466;2023-10-19T08:34:49;97606.97;;;30.33
66180;BMP280;52986;44.028;20.466;2023-10-19T08:37:14;97598.06;;;30.77
66180;BMP280;52986;44.028;20.466;2023-10-19T08:39:40;97604.97;;;30.87
66180;BMP280;52986;44.028;20.466;2023-10-19T08:42:06;97604.06;;;31.74
66180;BMP280;52986;44.028;20.466;2023-10-19T08:44:32;97588.00;;;30.81
66180;BMP280;52986;44.028;20.466;2023-10-19T08:46:58;97592.19;;;28.78
66180;BMP280;52986;44.028;20.466;2023-10-19T08:49:25;97575.97;;;26.82
66180;BMP280;52986;44.028;20.466;2023-10-19T08:51:53;97579.97;;;26.22
66180;BMP280;52986;44.028;20.466;2023-10-19T08:54:19;97579.72;;;25.46
66180;BMP280;52986;44.028;20.466;2023-10-19T08:56:45;97590.38;;;25.34
66180;BMP280;52986;44.028;20.466;2023-10-19T08:59:13;97592.72;;;25.85
66180;BMP280;52986;44.028;20.466;2023-10-19T09:01:42;97581.00;;;28.95
66180;BMP280;52986;44.028;20.466;2023-10-19T09:04:11;97577.06;;;31.74
66180;BMP280;52986;44.028;20.466;2023-10-19T09:06:38;97581.63;;;34.13
66180;BMP280;52986;44.028;20.466;2023-10-19T09:09:08;97564.16;;;36.34
66180;BMP280;52986;44.028;20.466;2023-10-19T09:11:34;97574.88;;;37.56
66180;BMP280;52986;44.028;20.466;2023-10-19T09:14:00;97576.94;;;38.20
66180;BMP280;52986;44.028;20.466;2023-10-19T09:16:26;97559.16;;;39.32
66180;BMP280;52986;44.028;20.466;2023-10-19T09:18:52;97560.22;;;39.47
66180;BMP280;52986;44.028;20.466;2023-10-19T09:21:19;97553.44;;;39.56
66180;BMP280;52986;44.028;20.466;2023-10-19T09:23:55;97538.75;;;36.63
66180;BMP280;52986;44.028;20.466;2023-10-19T09:26:21;97540.00;;;33.31
66180;BMP280;52986;44.028;20.466;2023-10-19T09:28:50;97528.78;;;30.20
66180;BMP280;52986;44.028;20.466;2023-10-19T09:31:17;97534.81;;;28.09
66180;BMP280;52986;44.028;20.466;2023-10-19T09:33:45;97534.78;;;26.40
66180;BMP280;52986;44.028;20.466;2023-10-19T09:36:11;97528.66;;;25.18
66180;BMP280;52986;44.028;20.466;2023-10-19T09:41:12;97541.00;;;23.72
66180;BMP280;52986;44.028;20.466;2023-10-19T09:43:43;97533.81;;;23.46
66180;BMP280;52986;44.028;20.466;2023-10-19T09:46:09;97522.41;;;23.20
66180;BMP280;52986;44.028;20.466;2023-10-19T09:48:45;97510.75;;;22.83
66180;BMP280;52986;44.028;20.466;2023-10-19T09:51:11;97495.53;;;22.67
66180;BMP280;52986;44.028;20.466;2023-10-19T09:53:38;97478.16;;;22.28
66180;BMP280;52986;44.028;20.466;2023-10-19T09:56:06;97470.81;;;21.48
66180;BMP280;52986;44.028;20.466;2023-10-19T09:58:41;97478.66;;;21.04
66180;BMP280;52986;44.028;20.466;2023-10-19T10:01:10;97481.25;;;20.57
66180;BMP280;52986;44.028;20.466;2023-10-19T10:06:15;97495.34;;;19.97
66180;BMP280;52986;44.028;20.466;2023-10-19T10:08:44;97495.63;;;19.94
66180;BMP280;52986;44.028;20.466;2023-10-19T10:11:27;97515.91;;;20.11
66180;BMP280;52986;44.028;20.466;2023-10-19T10:13:55;97508.75;;;20.27
66180;BMP280;52986;44.028;20.466;2023-10-19T10:16:30;97503.47;;;20.74
66180;BMP280;52986;44.028;20.466;2023-10-19T10:18:58;97501.38;;;22.01
66180;BMP280;52986;44.028;20.466;2023-10-19T10:21:29;97488.44;;;25.77
66180;BMP280;52986;44.028;20.466;2023-10-19T10:23:57;97486.47;;;27.89
66180;BMP280;52986;44.028;20.466;2023-10-19T10:26:28;97478.31;;;31.44
66180;BMP280;52986;44.028;20.466;2023-10-19T10:29:21;97459.44;;;33.31
66180;BMP280;52986;44.028;20.466;2023-10-19T10:31:48;97439.34;;;34.97
66180;BMP280;52986;44.028;20.466;2023-10-19T10:37:14;97419.19;;;35.83
66180;BMP280;52986;44.028;20.466;2023-10-19T10:39:40;97426.56;;;35.76
66180;BMP280;52986;44.028;20.466;2023-10-19T10:42:09;97430.25;;;35.12
66180;BMP280;52986;44.028;20.466;2023-10-19T10:47:18;97376.47;;;35.43
66180;BMP280;52986;44.028;20.466;2023-10-19T10:49:54;97363.69;;;34.38
66180;BMP280;52986;44.028;20.466;2023-10-19T10:52:35;97354.28;;;31.42
66180;BMP280;52986;44.028;20.466;2023-10-19T10:55:12;97350.28;;;29.52
66180;BMP280;52986;44.028;20.466;2023-10-19T10:57:39;97363.56;;;28.03
66180;BMP280;52986;44.028;20.466;2023-10-19T11:00:12;97375.09;;;27.44
66180;BMP280;52986;44.028;20.466;2023-10-19T11:02:58;97365.09;;;26.75
66180;BMP280;52986;44.028;20.466;2023-10-19T11:05:24;97383.38;;;26.19
66180;BMP280;52986;44.028;20.466;2023-10-19T11:08:07;97383.38;;;27.17
66180;BMP280;52986;44.028;20.466;2023-10-19T11:10:34;97380.00;;;30.73
66180;BMP280;52986;44.028;20.466;2023-10-19T11:13:03;97377.81;;;33.11
66180;BMP280;52986;44.028;20.466;2023-10-19T11:15:29;97388.44;;;34.16
66180;BMP280;52986;44.028;20.466;2023-10-19T11:17:54;97384.50;;;34.68
66180;BMP280;52986;44.028;20.466;2023-10-19T11:20:24;97388.81;;;35.73
66180;BMP280;52986;44.028;20.466;2023-10-19T11:22:51;97376.63;;;36.20
66180;BMP280;52986;44.028;20.466;2023-10-19T11:25:22;97390.66;;;36.81
66180;BMP280;52986;44.028;20.466;2023-10-19T11:27:47;97384.25;;;36.37
66180;BMP280;52986;44.028;20.466;2023-10-19T11:30:13;97382.00;;;36.53
66180;BMP280;52986;44.028;20.466;2023-10-19T11:32:47;97377.44;;;36.04
66180;BMP280;52986;44.028;20.466;2023-10-19T11:35:12;97358.88;;;35.56
66180;BMP280;52986;44.028;20.466;2023-10-19T11:37:48;97340.28;;;34.76
66180;BMP280;52986;44.028;20.466;2023-10-19T11:40:14;97344.88;;;32.10
66180;BMP280;52986;44.028;20.466;2023-10-19T11:42:40;97339.34;;;29.75
66180;BMP280;52986;44.028;20.466;2023-10-19T11:45:06;97324.28;;;27.93
66180;BMP280;52986;44.028;20.466;2023-10-19T11:47:31;97326.53;;;26.56
66180;BMP280;52986;44.028;20.466;2023-10-19T11:49:57;97323.06;;;25.77
66180;BMP280;52986;44.028;20.466;2023-10-19T11:52:22;97329.16;;;26.64
66180;BMP280;52986;44.028;20.466;2023-10-19T11:54:48;97320.56;;;27.23
66180;BMP280;52986;44.028;20.466;2023-10-19T11:57:14;97325.53;;;26.61
66180;BMP280;52986;44.028;20.466;2023-10-19T11:59:39;97322.34;;;27.28
66180;BMP280;52986;44.028;20.466;2023-10-19T12:02:06;97318.38;;;27.21
66180;BMP280;52986;44.028;20.466;2023-10-19T12:04:32;97323.91;;;26.58
66180;BMP280;52986;44.028;20.466;2023-10-19T12:07:01;97319.03;;;26.66
66180;BMP280;52986;44.028;20.466;2023-10-19T12:09:28;97319.25;;;25.90
66180;BMP280;52986;44.028;20.466;2023-10-19T12:11:53;97310.53;;;24.99
66180;BMP280;52986;44.028;20.466;2023-10-19T12:14:19;97298.06;;;24.41
66180;BMP280;52986;44.028;20.466;2023-10-19T12:16:47;97284.59;;;24.28
66180;BMP280;52986;44.028;20.466;2023-10-19T12:19:12;97281.03;;;24.10
66180;BMP280;52986;44.028;20.466;2023-10-19T12:21:40;97284.50;;;23.96
66180;BMP280;52986;44.028;20.466;2023-10-19T12:24:07;97274.31;;;23.96
66180;BMP280;52986;44.028;20.466;2023-10-19T12:26:33;97280.19;;;24.40
66180;BMP280;52986;44.028;20.466;2023-10-19T12:28:59;97289.78;;;24.49
66180;BMP280;52986;44.028;20.466;2023-10-19T12:31:24;97275.66;;;24.27
66180;BMP280;52986;44.028;20.466;2023-10-19T12:33:50;97279.31;;;23.67
66180;BMP280;52986;44.028;20.466;2023-10-19T12:36:16;97258.00;;;23.50
66180;BMP280;52986;44.028;20.466;2023-10-19T12:38:54;97238.00;;;23.18
66180;BMP280;52986;44.028;20.466;2023-10-19T12:41:20;97206.44;;;22.71
66180;BMP280;52986;44.028;20.466;2023-10-19T12:43:46;97194.72;;;22.48
66180;BMP280;52986;44.028;20.466;2023-10-19T12:46:13;97206.03;;;22.52
66180;BMP280;52986;44.028;20.466;2023-10-19T12:48:40;97219.84;;;22.54
66180;BMP280;52986;44.028;20.466;2023-10-19T12:51:05;97222.59;;;22.61
66180;BMP280;52986;44.028;20.466;2023-10-19T12:53:36;97234.66;;;22.81
66180;BMP280;52986;44.028;20.466;2023-10-19T12:56:04;97235.41;;;23.04
66180;BMP280;52986;44.028;20.466;2023-10-19T12:58:30;97229.06;;;23.25
66180;BMP280;52986;44.028;20.466;2023-10-19T13:00:57;97232.84;;;23.37
66180;BMP280;52986;44.028;20.466;2023-10-19T13:03:23;97221.75;;;23.27
66180;BMP280;52986;44.028;20.466;2023-10-19T13:05:52;97220.47;;;23.21
66180;BMP280;52986;44.028;20.466;2023-10-19T13:08:18;97222.28;;;23.26
66180;BMP280;52986;44.028;20.466;2023-10-19T13:10:46;97226.50;;;23.11
66180;BMP280;52986;44.028;20.466;2023-10-19T13:13:13;97228.69;;;23.21
66180;BMP280;52986;44.028;20.466;2023-10-19T13:15:42;97222.84;;;23.32
66180;BMP280;52986;44.028;20.466;2023-10-19T13:18:09;97218.63;;;23.23
66180;BMP280;52986;44.028;20.466;2023-10-19T13:20:50;97215.91;;;23.31
66180;BMP280;52986;44.028;20.466;2023-10-19T13:23:18;97218.88;;;23.18
66180;BMP280;52986;44.028;20.466;2023-10-19T13:25:50;97212.66;;;23.09
66180;BMP280;52986;44.028;20.466;2023-10-19T13:28:18;97208.44;;;23.16
66180;BMP280;52986;44.028;20.466;2023-10-19T13:30:51;97207.34;;;23.19
66180;BMP280;52986;44.028;20.466;2023-10-19T13:33:21;97204.63;;;23.04
66180;BMP280;52986;44.028;20.466;2023-10-19T13:35:47;97198.03;;;22.92
66180;BMP280;52986;44.028;20.466;2023-10-19T13:38:14;97196.03;;;22.92
66180;BMP280;52986;44.028;20.466;2023-10-19T13:40:41;97187.50;;;22.88
66180;BMP280;52986;44.028;20.466;2023-10-19T13:43:08;97185.88;;;23.00
66180;BMP280;52986;44.028;20.466;2023-10-19T13:45:39;97178.03;;;22.97
66180;BMP280;52986;44.028;20.466;2023-10-19T13:48:05;97169.81;;;23.04
66180;BMP280;52986;44.028;20.466;2023-10-19T13:50:32;97172.56;;;23.04
66180;BMP280;52986;44.028;20.466;2023-10-19T13:52:59;97170.75;;;22.99
66180;BMP280;52986;44.028;20.466;2023-10-19T13:55:30;97159.81;;;23.07
66180;BMP280;52986;44.028;20.466;2023-10-19T13:57:56;97169.47;;;22.93
66180;BMP280;52986;44.028;20.466;2023-10-19T14:00:23;97178.38;;;22.86
66180;BMP280;52986;44.028;20.466;2023-10-19T14:02:52;97167.09;;;22.74
66180;BMP280;52986;44.028;20.466;2023-10-19T14:05:19;97168.56;;;22.67
66180;BMP280;52986;44.028;20.466;2023-10-19T14:07:48;97170.72;;;22.61
66180;BMP280;52986;44.028;20.466;2023-10-19T14:10:13;97170.56;;;22.67
66180;BMP280;52986;44.028;20.466;2023-10-19T14:12:39;97170.56;;;22.59
66180;BMP280;52986;44.028;20.466;2023-10-19T14:15:12;97177.28;;;22.66
66180;BMP280;52986;44.028;20.466;2023-10-19T14:17:38;97181.97;;;22.50